sensor_id;sensor_type;location;lat;lon;timestamp;pressure;altitude;pressure_sealevel;temperature
53667;BMP280;39568;51.026;5.468;2023-09-08T00:00:44;100855.16;;;20.03
53667;BMP280;39568;51.026;5.468;2023-09-08T00:03:11;100855.75;;;20.02
53667;BMP280;39568;51.026;5.468;2023-09-08T00:05:37;100860.47;;;19.94
53667;BMP280;39568;51.026;5.468;2023-09-08T00:08:04;100855.44;;;19.90
53667;BMP280;39568;51.026;5.468;2023-09-08T00:10:31;100858.72;;;19.89
53667;BMP280;39568;51.026;5.468;2023-09-08T00:12:59;100859.44;;;19.82
53667;BMP280;39568;51.026;5.468;2023-09-08T00:15:26;100857.88;;;19.79
53667;BMP280;39568;51.026;5.468;2023-09-08T00:17:52;100863.44;;;19.73
53667;BMP280;39568;51.026;5.468;2023-09-08T00:20:19;100858.44;;;19.70
53667;BMP280;39568;51.026;5.468;2023-09-08T00:22:45;100862.63;;;19.63
53667;BMP280;39568;51.026;5.468;2023-09-08T00:25:12;100858.53;;;19.55
53667;BMP280;39568;51.026;5.468;2023-09-08T00:27:39;100861.03;;;19.53
53667;BMP280;39568;51.026;5.468;2023-09-08T00:30:08;100859.47;;;19.35
53667;BMP280;39568;51.026;5.468;2023-09-08T00:32:53;100857.34;;;19.25
53667;BMP280;39568;51.026;5.468;2023-09-08T00:35:19;100859.53;;;19.19
53667;BMP280;39568;51.026;5.468;2023-09-08T00:37:46;100856.81;;;19.27
53667;BMP280;39568;51.026;5.468;2023-09-08T00:40:13;100850.72;;;19.19
53667;BMP280;39568;51.026;5.468;2023-09-08T00:42:40;100851.25;;;19.17
53667;BMP280;39568;51.026;5.468;2023-09-08T00:45:08;100847.84;;;19.09
53667;BMP280;39568;51.026;5.468;2023-09-08T00:47:35;100847.16;;;19.01
53667;BMP280;39568;51.026;5.468;2023-09-08T00:50:02;100843.94;;;18.95
53667;BMP280;39568;51.026;5.468;2023-09-08T00:52:29;100847.72;;;18.85
53667;BMP280;39568;51.026;5.468;2023-09-08T00:54:58;100845.03;;;18.77
53667;BMP280;39568;51.026;5.468;2023-09-08T00:57:25;100847.94;;;18.64
53667;BMP280;39568;51.026;5.468;2023-09-08T00:59:52;100844.50;;;18.64
53667;BMP280;39568;51.026;5.468;2023-09-08T01:02:21;100841.28;;;18.50
53667;BMP280;39568;51.026;5.468;2023-09-08T01:04:49;100843.44;;;18.52
53667;BMP280;39568;51.026;5.468;2023-09-08T01:07:16;100830.84;;;18.46
53667;BMP280;39568;51.026;5.468;2023-09-08T01:09:45;100836.56;;;18.43
53667;BMP280;39568;51.026;5.468;2023-09-08T01:12:12;100837.53;;;18.38
53667;BMP280;39568;51.026;5.468;2023-09-08T01:14:39;100835.84;;;18.35
53667;BMP280;39568;51.026;5.468;2023-09-08T01:17:05;100837.84;;;18.34
53667;BMP280;39568;51.026;5.468;2023-09-08T01:19:33;100836.56;;;18.43
53667;BMP280;39568;51.026;5.468;2023-09-08T01:22:37;100840.72;;;18.44
53667;BMP280;39568;51.026;5.468;2023-09-08T01:25:18;100836.94;;;18.39
53667;BMP280;39568;51.026;5.468;2023-09-08T01:27:46;100841.59;;;18.39
53667;BMP280;39568;51.026;5.468;2023-09-08T01:30:15;100841.81;;;18.33
53667;BMP280;39568;51.026;5.468;2023-09-08T01:32:43;100843.94;;;18.35
53667;BMP280;39568;51.026;5.468;2023-09-08T01:35:11;100836.94;;;18.32
53667;BMP280;39568;51.026;5.468;2023-09-08T01:37:40;100832.28;;;18.32
53667;BMP280;39568;51.026;5.468;2023-09-08T01:40:07;100839.13;;;18.41
53667;BMP280;39568;51.026;5.468;2023-09-08T01:42:37;100833.19;;;18.50
53667;BMP280;39568;51.026;5.468;2023-09-08T01:45:04;100838.75;;;18.44
53667;BMP280;39568;51.026;5.468;2023-09-08T01:47:31;100833.00;;;18.33
53667;BMP280;39568;51.026;5.468;2023-09-08T01:49:58;100828.16;;;18.24
53667;BMP280;39568;51.026;5.468;2023-09-08T01:52:24;100826.16;;;18.17
53667;BMP280;39568;51.026;5.468;2023-09-08T01:54:51;100827.25;;;18.14
53667;BMP280;39568;51.026;5.468;2023-09-08T01:57:18;100827.94;;;18.07
53667;BMP280;39568;51.026;5.468;2023-09-08T01:59:46;100825.78;;;18.05
53667;BMP280;39568;51.026;5.468;2023-09-08T02:02:13;100825.97;;;18.07
53667;BMP280;39568;51.026;5.468;2023-09-08T02:04:40;100818.59;;;18.00
53667;BMP280;39568;51.026;5.468;2023-09-08T02:07:06;100821.81;;;17.99
53667;BMP280;39568;51.026;5.468;2023-09-08T02:09:34;100820.16;;;17.88
53667;BMP280;39568;51.026;5.468;2023-09-08T02:12:02;100815.88;;;17.85
53667;BMP280;39568;51.026;5.468;2023-09-08T02:14:29;100820.50;;;17.77
53667;BMP280;39568;51.026;5.468;2023-09-08T02:16:57;100814.72;;;17.65
53667;BMP280;39568;51.026;5.468;2023-09-08T02:19:23;100815.59;;;17.60
53667;BMP280;39568;51.026;5.468;2023-09-08T02:21:50;100813.50;;;17.74
53667;BMP280;39568;51.026;5.468;2023-09-08T02:24:17;100811.22;;;17.93
53667;BMP280;39568;51.026;5.468;2023-09-08T02:26:43;100804.72;;;17.81
53667;BMP280;39568;51.026;5.468;2023-09-08T02:29:10;100808.47;;;17.70
53667;BMP280;39568;51.026;5.468;2023-09-08T02:31:37;100810.78;;;17.66
53667;BMP280;39568;51.026;5.468;2023-09-08T02:34:05;100809.16;;;17.63
53667;BMP280;39568;51.026;5.468;2023-09-08T02:36:31;100808.06;;;17.59
53667;BMP280;39568;51.026;5.468;2023-09-08T02:38:58;100812.91;;;17.60
53667;BMP280;39568;51.026;5.468;2023-09-08T02:41:25;100804.41;;;17.49
53667;BMP280;39568;51.026;5.468;2023-09-08T02:43:51;100798.34;;;17.48
53667;BMP280;39568;51.026;5.468;2023-09-08T02:46:18;100807.28;;;17.43
53667;BMP280;39568;51.026;5.468;2023-09-08T02:48:44;100805.81;;;17.35
53667;BMP280;39568;51.026;5.468;2023-09-08T02:51:13;100807.22;;;17.28
53667;BMP280;39568;51.026;5.468;2023-09-08T02:53:39;100815.09;;;17.26
53667;BMP280;39568;51.026;5.468;2023-09-08T02:56:06;100804.13;;;17.17
53667;BMP280;39568;51.026;5.468;2023-09-08T02:58:34;100803.00;;;17.12
53667;BMP280;39568;51.026;5.468;2023-09-08T03:01:09;100805.84;;;17.07
53667;BMP280;39568;51.026;5.468;2023-09-08T03:03:37;100795.97;;;17.02
53667;BMP280;39568;51.026;5.468;2023-09-08T03:06:03;100796.28;;;16.98
53667;BMP280;39568;51.026;5.468;2023-09-08T03:08:31;100793.59;;;16.98
53667;BMP280;39568;51.026;5.468;2023-09-08T03:10:59;100803.28;;;16.93
53667;BMP280;39568;51.026;5.468;2023-09-08T03:13:25;100802.13;;;16.89
53667;BMP280;39568;51.026;5.468;2023-09-08T03:15:54;100799.78;;;16.85
53667;BMP280;39568;51.026;5.468;2023-09-08T03:18:20;100798.34;;;16.84
53667;BMP280;39568;51.026;5.468;2023-09-08T03:20:48;100792.97;;;16.84
53667;BMP280;39568;51.026;5.468;2023-09-08T03:23:15;100787.41;;;16.82
53667;BMP280;39568;51.026;5.468;2023-09-08T03:25:43;100797.63;;;16.84
53667;BMP280;39568;51.026;5.468;2023-09-08T03:28:10;100790.41;;;16.79
53667;BMP280;39568;51.026;5.468;2023-09-08T03:30:36;100787.72;;;16.79
53667;BMP280;39568;51.026;5.468;2023-09-08T03:33:03;100780.06;;;16.83
53667;BMP280;39568;51.026;5.468;2023-09-08T03:35:30;100784.59;;;16.88
53667;BMP280;39568;51.026;5.468;2023-09-08T03:37:56;100782.63;;;16.88
53667;BMP280;39568;51.026;5.468;2023-09-08T03:40:23;100782.22;;;16.84
53667;BMP280;39568;51.026;5.468;2023-09-08T03:42:51;100779.66;;;16.79
53667;BMP280;39568;51.026;5.468;2023-09-08T03:45:18;100772.81;;;16.70
53667;BMP280;39568;51.026;5.468;2023-09-08T03:47:45;100779.97;;;16.68
53667;BMP280;39568;51.026;5.468;2023-09-08T03:50:11;100779.44;;;16.69
53667;BMP280;39568;51.026;5.468;2023-09-08T03:52:38;100774.59;;;16.68
53667;BMP280;39568;51.026;5.468;2023-09-08T03:55:05;100776.00;;;16.69
53667;BMP280;39568;51.026;5.468;2023-09-08T03:57:32;100765.94;;;16.62
53667;BMP280;39568;51.026;5.468;2023-09-08T04:00:00;100776.31;;;16.58
53667;BMP280;39568;51.026;5.468;2023-09-08T04:02:27;100774.88;;;16.57
53667;BMP280;39568;51.026;5.468;2023-09-08T04:04:53;100774.47;;;16.53
53667;BMP280;39568;51.026;5.468;2023-09-08T04:07:20;100771.91;;;16.47
53667;BMP280;39568;51.026;5.468;2023-09-08T04:09:47;100776.38;;;16.45
53667;BMP280;39568;51.026;5.468;2023-09-08T04:12:13;100772.78;;;16.42
53667;BMP280;39568;51.026;5.468;2023-09-08T04:14:41;100768.13;;;16.43
53667;BMP280;39568;51.026;5.468;2023-09-08T04:17:09;100776.16;;;16.43
53667;BMP280;39568;51.026;5.468;2023-09-08T04:19:35;100767.53;;;16.37
53667;BMP280;39568;51.026;5.468;2023-09-08T04:22:03;100772.50;;;16.33
53667;BMP280;39568;51.026;5.468;2023-09-08T04:24:29;100768.91;;;16.30
53667;BMP280;39568;51.026;5.468;2023-09-08T04:26:56;100773.56;;;16.30
53667;BMP280;39568;51.026;5.468;2023-09-08T04:29:23;100778.00;;;16.27
53667;BMP280;39568;51.026;5.468;2023-09-08T04:31:49;100774.41;;;16.25
53667;BMP280;39568;51.026;5.468;2023-09-08T04:34:17;100771.53;;;16.23
53667;BMP280;39568;51.026;5.468;2023-09-08T04:36:44;100773.66;;;16.24
53667;BMP280;39568;51.026;5.468;2023-09-08T04:39:11;100781.34;;;16.20
53667;BMP280;39568;51.026;5.468;2023-09-08T04:41:37;100785.28;;;16.19
53667;BMP280;39568;51.026;5.468;2023-09-08T04:44:05;100776.59;;;16.13
53667;BMP280;39568;51.026;5.468;2023-09-08T04:46:31;100776.22;;;16.09
53667;BMP280;39568;51.026;5.468;2023-09-08T04:48:58;100776.03;;;16.07
53667;BMP280;39568;51.026;5.468;2023-09-08T04:51:26;100770.84;;;16.09
53667;BMP280;39568;51.026;5.468;2023-09-08T04:53:53;100779.44;;;16.07
53667;BMP280;39568;51.026;5.468;2023-09-08T04:56:20;100776.03;;;16.07
53667;BMP280;39568;51.026;5.468;2023-09-08T04:58:46;100780.66;;;16.06
53667;BMP280;39568;51.026;5.468;2023-09-08T05:01:13;100779.81;;;16.11
53667;BMP280;39568;51.026;5.468;2023-09-08T05:03:40;100775.00;;;16.10
53667;BMP280;39568;51.026;5.468;2023-09-08T05:06:06;100784.88;;;16.15
53667;BMP280;39568;51.026;5.468;2023-09-08T05:08:34;100778.06;;;16.14
53667;BMP280;39568;51.026;5.468;2023-09-08T05:11:01;100779.38;;;16.20
53667;BMP280;39568;51.026;5.468;2023-09-08T05:13:28;100791.56;;;16.22
53667;BMP280;39568;51.026;5.468;2023-09-08T05:15:54;100776.69;;;16.20
53667;BMP280;39568;51.026;5.468;2023-09-08T05:18:25;100784.94;;;16.23
53667;BMP280;39568;51.026;5.468;2023-09-08T05:20:52;100783.72;;;16.24
53667;BMP280;39568;51.026;5.468;2023-09-08T05:23:19;100783.56;;;16.29
53667;BMP280;39568;51.026;5.468;2023-09-08T05:25:47;100780.97;;;16.37
53667;BMP280;39568;51.026;5.468;2023-09-08T05:28:14;100788.91;;;16.42
53667;BMP280;39568;51.026;5.468;2023-09-08T05:30:40;100782.66;;;16.47
53667;BMP280;39568;51.026;5.468;2023-09-08T05:33:07;100781.47;;;16.56
53667;BMP280;39568;51.026;5.468;2023-09-08T05:35:34;100787.81;;;16.66
53667;BMP280;39568;51.026;5.468;2023-09-08T05:38:01;100792.72;;;16.75
53667;BMP280;39568;51.026;5.468;2023-09-08T05:40:28;100784.91;;;16.84
53667;BMP280;39568;51.026;5.468;2023-09-08T05:42:56;100785.53;;;16.98
53667;BMP280;39568;51.026;5.468;2023-09-08T05:45:22;100790.63;;;17.09
53667;BMP280;39568;51.026;5.468;2023-09-08T05:47:51;100793.00;;;17.20
53667;BMP280;39568;51.026;5.468;2023-09-08T05:50:18;100790.00;;;17.31
53667;BMP280;39568;51.026;5.468;2023-09-08T05:52:44;100798.75;;;17.52
53667;BMP280;39568;51.026;5.468;2023-09-08T05:55:11;100799.63;;;17.55
53667;BMP280;39568;51.026;5.468;2023-09-08T05:57:38;100794.66;;;17.66
53667;BMP280;39568;51.026;5.468;2023-09-08T06:00:08;100786.94;;;17.78
53667;BMP280;39568;51.026;5.468;2023-09-08T06:02:35;100805.13;;;18.08
53667;BMP280;39568;51.026;5.468;2023-09-08T06:05:02;100822.22;;;18.63
53667;BMP280;39568;51.026;5.468;2023-09-08T06:07:29;100829.06;;;18.57
53667;BMP280;39568;51.026;5.468;2023-09-08T06:09:56;100823.31;;;18.60
53667;BMP280;39568;51.026;5.468;2023-09-08T06:12:22;100824.38;;;18.65
53667;BMP280;39568;51.026;5.468;2023-09-08T06:14:49;100832.28;;;18.70
53667;BMP280;39568;51.026;5.468;2023-09-08T06:17:17;100832.44;;;18.87
53667;BMP280;39568;51.026;5.468;2023-09-08T06:19:44;100831.91;;;18.96
53667;BMP280;39568;51.026;5.468;2023-09-08T06:22:10;100835.28;;;19.12
53667;BMP280;39568;51.026;5.468;2023-09-08T06:24:37;100842.06;;;19.28
53667;BMP280;39568;51.026;5.468;2023-09-08T06:27:05;100838.91;;;19.47
53667;BMP280;39568;51.026;5.468;2023-09-08T06:29:32;100834.19;;;19.62
53667;BMP280;39568;51.026;5.468;2023-09-08T06:31:58;100832.84;;;19.78
53667;BMP280;39568;51.026;5.468;2023-09-08T06:34:26;100835.97;;;19.92
53667;BMP280;39568;51.026;5.468;2023-09-08T06:36:53;100850.50;;;20.04
53667;BMP280;39568;51.026;5.468;2023-09-08T06:39:20;100854.91;;;20.17
53667;BMP280;39568;51.026;5.468;2023-09-08T06:41:46;100854.25;;;20.33
53667;BMP280;39568;51.026;5.468;2023-09-08T06:44:13;100851.59;;;20.50
53667;BMP280;39568;51.026;5.468;2023-09-08T06:46:39;100851.75;;;20.69
53667;BMP280;39568;51.026;5.468;2023-09-08T06:49:06;100860.63;;;20.87
53667;BMP280;39568;51.026;5.468;2023-09-08T06:51:34;100860.13;;;20.98
53667;BMP280;39568;51.026;5.468;2023-09-08T06:54:02;100863.53;;;21.16
53667;BMP280;39568;51.026;5.468;2023-09-08T06:56:29;100869.91;;;21.28
53667;BMP280;39568;51.026;5.468;2023-09-08T06:58:55;100871.47;;;21.48
53667;BMP280;39568;51.026;5.468;2023-09-08T07:01:23;100871.56;;;21.67
53667;BMP280;39568;51.026;5.468;2023-09-08T07:03:49;100864.66;;;21.83
53667;BMP280;39568;51.026;5.468;2023-09-08T07:06:16;100861.84;;;21.90
53667;BMP280;39568;51.026;5.468;2023-09-08T07:08:44;100856.19;;;22.06
53667;BMP280;39568;51.026;5.468;2023-09-08T07:11:11;100862.09;;;22.21
53667;BMP280;39568;51.026;5.468;2023-09-08T07:13:38;100864.72;;;22.38
53667;BMP280;39568;51.026;5.468;2023-09-08T07:16:04;100868.03;;;22.56
53667;BMP280;39568;51.026;5.468;2023-09-08T07:18:31;100862.78;;;22.67
53667;BMP280;39568;51.026;5.468;2023-09-08T07:21:01;100868.75;;;22.66
53667;BMP280;39568;51.026;5.468;2023-09-08T07:23:27;100865.75;;;22.81
53667;BMP280;39568;51.026;5.468;2023-09-08T07:25:55;100867.31;;;23.03
53667;BMP280;39568;51.026;5.468;2023-09-08T07:28:22;100870.44;;;23.19
53667;BMP280;39568;51.026;5.468;2023-09-08T07:30:49;100871.00;;;23.27
53667;BMP280;39568;51.026;5.468;2023-09-08T07:33:15;100876.84;;;23.42
53667;BMP280;39568;51.026;5.468;2023-09-08T07:35:42;100878.53;;;23.57
53667;BMP280;39568;51.026;5.468;2023-09-08T07:38:09;100885.03;;;23.73
53667;BMP280;39568;51.026;5.468;2023-09-08T07:40:35;100883.09;;;23.95
53667;BMP280;39568;51.026;5.468;2023-09-08T07:43:04;100886.06;;;23.99
53667;BMP280;39568;51.026;5.468;2023-09-08T07:45:30;100886.63;;;23.97
53667;BMP280;39568;51.026;5.468;2023-09-08T07:47:57;100889.25;;;23.95
53667;BMP280;39568;51.026;5.468;2023-09-08T07:50:25;100888.56;;;24.16
53667;BMP280;39568;51.026;5.468;2023-09-08T07:52:54;100887.03;;;24.34
53667;BMP280;39568;51.026;5.468;2023-09-08T07:55:22;100890.56;;;24.36
53667;BMP280;39568;51.026;5.468;2023-09-08T07:57:50;100881.13;;;24.58
53667;BMP280;39568;51.026;5.468;2023-09-08T08:00:19;100888.28;;;24.75
53667;BMP280;39568;51.026;5.468;2023-09-08T08:02:47;100886.09;;;24.95
53667;BMP280;39568;51.026;5.468;2023-09-08T08:05:14;100889.84;;;25.11
53667;BMP280;39568;51.026;5.468;2023-09-08T08:07:41;100885.38;;;25.27
53667;BMP280;39568;51.026;5.468;2023-09-08T08:10:09;100888.81;;;25.39
53667;BMP280;39568;51.026;5.468;2023-09-08T08:12:36;100889.84;;;25.11
53667;BMP280;39568;51.026;5.468;2023-09-08T08:15:03;100886.56;;;25.24
53667;BMP280;39568;51.026;5.468;2023-09-08T08:17:32;100885.28;;;25.48
53667;BMP280;39568;51.026;5.468;2023-09-08T08:19:59;100888.56;;;25.81
53667;BMP280;39568;51.026;5.468;2023-09-08T08:22:32;100879.84;;;25.82
53667;BMP280;39568;51.026;5.468;2023-09-08T08:24:58;100887.38;;;25.96
53667;BMP280;39568;51.026;5.468;2023-09-08T08:27:25;100886.69;;;25.95
53667;BMP280;39568;51.026;5.468;2023-09-08T08:29:52;100888.06;;;26.19
53667;BMP280;39568;51.026;5.468;2023-09-08T08:32:19;100888.69;;;26.06
53667;BMP280;39568;51.026;5.468;2023-09-08T08:34:47;100899.13;;;26.10
53667;BMP280;39568;51.026;5.468;2023-09-08T08:37:13;100887.47;;;26.57
53667;BMP280;39568;51.026;5.468;2023-09-08T08:39:40;100891.91;;;26.76
53667;BMP280;39568;51.026;5.468;2023-09-08T08:42:08;100895.09;;;26.97
53667;BMP280;39568;51.026;5.468;2023-09-08T08:44:35;100896.03;;;27.02
53667;BMP280;39568;51.026;5.468;2023-09-08T08:47:06;100892.66;;;27.69
53667;BMP280;39568;51.026;5.468;2023-09-08T08:49:33;100892.91;;;28.16
53667;BMP280;39568;51.026;5.468;2023-09-08T08:52:02;100900.47;;;28.91
53667;BMP280;39568;51.026;5.468;2023-09-08T08:54:33;100885.59;;;29.92
53667;BMP280;39568;51.026;5.468;2023-09-08T08:57:01;100891.72;;;31.00
53667;BMP280;39568;51.026;5.468;2023-09-08T08:59:28;100883.56;;;30.84
53667;BMP280;39568;51.026;5.468;2023-09-08T09:01:57;100900.31;;;29.83
53667;BMP280;39568;51.026;5.468;2023-09-08T09:04:25;100899.06;;;30.21
53667;BMP280;39568;51.026;5.468;2023-09-08T09:06:53;100889.44;;;31.14
53667;BMP280;39568;51.026;5.468;2023-09-08T09:09:21;100895.81;;;32.50
53667;BMP280;39568;51.026;5.468;2023-09-08T09:11:49;100895.59;;;31.53
53667;BMP280;39568;51.026;5.468;2023-09-08T09:14:15;100898.53;;;31.38
53667;BMP280;39568;51.026;5.468;2023-09-08T09:16:42;100898.03;;;31.24
53667;BMP280;39568;51.026;5.468;2023-09-08T09:19:17;100901.47;;;32.08
53667;BMP280;39568;51.026;5.468;2023-09-08T09:21:46;100895.81;;;32.99
53667;BMP280;39568;51.026;5.468;2023-09-08T09:24:14;100894.41;;;33.25
53667;BMP280;39568;51.026;5.468;2023-09-08T09:26:42;100907.50;;;33.82
53667;BMP280;39568;51.026;5.468;2023-09-08T09:29:12;100901.13;;;34.05
53667;BMP280;39568;51.026;5.468;2023-09-08T09:31:50;100898.59;;;35.73
53667;BMP280;39568;51.026;5.468;2023-09-08T09:34:17;100895.63;;;36.13
53667;BMP280;39568;51.026;5.468;2023-09-08T09:36:43;100901.28;;;34.84
53667;BMP280;39568;51.026;5.468;2023-09-08T09:39:12;100907.16;;;34.29
53667;BMP280;39568;51.026;5.468;2023-09-08T09:41:38;100895.13;;;34.50
53667;BMP280;39568;51.026;5.468;2023-09-08T09:44:07;100893.94;;;34.99
53667;BMP280;39568;51.026;5.468;2023-09-08T09:46:34;100899.59;;;35.46
53667;BMP280;39568;51.026;5.468;2023-09-08T09:49:00;100889.91;;;37.42
53667;BMP280;39568;51.026;5.468;2023-09-08T09:51:28;100895.50;;;35.51
53667;BMP280;39568;51.026;5.468;2023-09-08T09:53:55;100890.66;;;36.03
53667;BMP280;39568;51.026;5.468;2023-09-08T09:56:24;100907.47;;;34.81
53667;BMP280;39568;51.026;5.468;2023-09-08T09:58:52;100908.88;;;34.46
53667;BMP280;39568;51.026;5.468;2023-09-08T10:01:22;100906.38;;;34.60
53667;BMP280;39568;51.026;5.468;2023-09-08T10:03:49;100908.03;;;35.56
53667;BMP280;39568;51.026;5.468;2023-09-08T10:06:16;100894.84;;;36.02
53667;BMP280;39568;51.026;5.468;2023-09-08T10:08:45;100905.81;;;35.47
53667;BMP280;39568;51.026;5.468;2023-09-08T10:11:13;100890.09;;;35.18
53667;BMP280;39568;51.026;5.468;2023-09-08T10:13:46;100898.97;;;35.52
53667;BMP280;39568;51.026;5.468;2023-09-08T10:16:15;100894.09;;;35.07
53667;BMP280;39568;51.026;5.468;2023-09-08T10:18:45;100885.75;;;35.96
53667;BMP280;39568;51.026;5.468;2023-09-08T10:21:12;100887.69;;;37.19
53667;BMP280;39568;51.026;5.468;2023-09-08T10:23:41;100885.31;;;38.03
53667;BMP280;39568;51.026;5.468;2023-09-08T10:26:10;100891.41;;;36.68
53667;BMP280;39568;51.026;5.468;2023-09-08T10:28:38;100888.00;;;36.75
53667;BMP280;39568;51.026;5.468;2023-09-08T10:31:05;100884.44;;;37.54
53667;BMP280;39568;51.026;5.468;2023-09-08T10:33:32;100885.44;;;38.35
53667;BMP280;39568;51.026;5.468;2023-09-08T10:36:02;100886.84;;;38.80
53667;BMP280;39568;51.026;5.468;2023-09-08T10:38:32;100882.41;;;37.69
53667;BMP280;39568;51.026;5.468;2023-09-08T10:41:25;100882.63;;;38.37
53667;BMP280;39568;51.026;5.468;2023-09-08T10:43:54;100881.97;;;38.52
53667;BMP280;39568;51.026;5.468;2023-09-08T10:46:22;100882.66;;;38.73
53667;BMP280;39568;51.026;5.468;2023-09-08T10:48:49;100879.06;;;39.57
53667;BMP280;39568;51.026;5.468;2023-09-08T10:51:18;100886.84;;;39.00
53667;BMP280;39568;51.026;5.468;2023-09-08T10:53:46;100874.75;;;40.78
53667;BMP280;39568;51.026;5.468;2023-09-08T10:56:13;100875.19;;;41.59
53667;BMP280;39568;51.026;5.468;2023-09-08T10:58:40;100881.59;;;40.05
53667;BMP280;39568;51.026;5.468;2023-09-08T11:01:13;100880.38;;;39.66
53667;BMP280;39568;51.026;5.468;2023-09-08T11:03:46;100876.44;;;40.43
53667;BMP280;39568;51.026;5.468;2023-09-08T11:06:16;100874.75;;;41.41
53667;BMP280;39568;51.026;5.468;2023-09-08T11:08:45;100879.22;;;38.83
53667;BMP280;39568;51.026;5.468;2023-09-08T11:11:12;100877.59;;;39.74
53667;BMP280;39568;51.026;5.468;2023-09-08T11:13:39;100874.53;;;40.20
53667;BMP280;39568;51.026;5.468;2023-09-08T11:16:06;100872.41;;;41.59
53667;BMP280;39568;51.026;5.468;2023-09-08T11:18:33;100874.69;;;42.40
53667;BMP280;39568;51.026;5.468;2023-09-08T11:21:02;100878.97;;;39.69
53667;BMP280;39568;51.026;5.468;2023-09-08T11:23:29;100874.53;;;40.98
53667;BMP280;39568;51.026;5.468;2023-09-08T11:25:59;100883.28;;;39.34
53667;BMP280;39568;51.026;5.468;2023-09-08T11:28:27;100876.38;;;38.34
53667;BMP280;39568;51.026;5.468;2023-09-08T11:30:55;100882.59;;;39.39
53667;BMP280;39568;51.026;5.468;2023-09-08T11:33:22;100866.41;;;39.84
53667;BMP280;39568;51.026;5.468;2023-09-08T11:35:50;100882.69;;;36.30
53667;BMP280;39568;51.026;5.468;2023-09-08T11:38:24;100863.56;;;37.45
53667;BMP280;39568;51.026;5.468;2023-09-08T11:40:51;100869.34;;;39.38
53667;BMP280;39568;51.026;5.468;2023-09-08T11:43:20;100860.25;;;41.26
53667;BMP280;39568;51.026;5.468;2023-09-08T11:45:47;100857.53;;;41.20
53667;BMP280;39568;51.026;5.468;2023-09-08T11:48:14;100877.06;;;39.15
53667;BMP280;39568;51.026;5.468;2023-09-08T11:50:41;100862.50;;;36.97
53667;BMP280;39568;51.026;5.468;2023-09-08T11:53:18;100866.56;;;39.38
53667;BMP280;39568;51.026;5.468;2023-09-08T11:55:46;100864.19;;;37.40
53667;BMP280;39568;51.026;5.468;2023-09-08T11:58:13;100867.34;;;38.28
53667;BMP280;39568;51.026;5.468;2023-09-08T12:00:43;100864.38;;;36.04
53667;BMP280;39568;51.026;5.468;2023-09-08T12:03:14;100872.88;;;38.20
53667;BMP280;39568;51.026;5.468;2023-09-08T12:05:42;100875.38;;;37.46
53667;BMP280;39568;51.026;5.468;2023-09-08T12:08:10;100868.78;;;37.01
53667;BMP280;39568;51.026;5.468;2023-09-08T12:10:40;100867.03;;;35.94
53667;BMP280;39568;51.026;5.468;2023-09-08T12:13:08;100872.16;;;36.90
53667;BMP280;39568;51.026;5.468;2023-09-08T12:15:36;100866.69;;;38.86
53667;BMP280;39568;51.026;5.468;2023-09-08T12:18:07;100870.06;;;38.04
53667;BMP280;39568;51.026;5.468;2023-09-08T12:20:35;100870.91;;;37.05
53667;BMP280;39568;51.026;5.468;2023-09-08T12:23:04;100878.97;;;36.73
53667;BMP280;39568;51.026;5.468;2023-09-08T12:25:32;100866.69;;;36.98
53667;BMP280;39568;51.026;5.468;2023-09-08T12:28:01;100864.56;;;38.28
53667;BMP280;39568;51.026;5.468;2023-09-08T12:30:28;100872.94;;;38.86
53667;BMP280;39568;51.026;5.468;2023-09-08T12:32:59;100868.69;;;38.25
53667;BMP280;39568;51.026;5.468;2023-09-08T12:35:27;100865.88;;;39.43
53667;BMP280;39568;51.026;5.468;2023-09-08T12:37:58;100868.09;;;38.75
53667;BMP280;39568;51.026;5.468;2023-09-08T12:40:25;100866.00;;;38.57
53667;BMP280;39568;51.026;5.468;2023-09-08T12:42:52;100867.25;;;37.92
53667;BMP280;39568;51.026;5.468;2023-09-08T12:45:20;100867.19;;;37.80
53667;BMP280;39568;51.026;5.468;2023-09-08T12:47:47;100859.03;;;38.62
53667;BMP280;39568;51.026;5.468;2023-09-08T12:50:14;100864.44;;;39.56
53667;BMP280;39568;51.026;5.468;2023-09-08T12:52:42;100860.41;;;38.65
53667;BMP280;39568;51.026;5.468;2023-09-08T12:55:09;100861.09;;;38.57
53667;BMP280;39568;51.026;5.468;2023-09-08T12:57:35;100853.41;;;38.08
53667;BMP280;39568;51.026;5.468;2023-09-08T13:00:03;100845.50;;;37.46
53667;BMP280;39568;51.026;5.468;2023-09-08T13:02:30;100852.69;;;36.80
53667;BMP280;39568;51.026;5.468;2023-09-08T13:04:57;100849.00;;;37.51
53667;BMP280;39568;51.026;5.468;2023-09-08T13:07:24;100841.66;;;38.45
53667;BMP280;39568;51.026;5.468;2023-09-08T13:09:52;100848.06;;;37.12
53667;BMP280;39568;51.026;5.468;2023-09-08T13:12:19;100843.72;;;38.73
53667;BMP280;39568;51.026;5.468;2023-09-08T13:14:46;100846.41;;;37.99
53667;BMP280;39568;51.026;5.468;2023-09-08T13:17:13;100836.66;;;37.82
53667;BMP280;39568;51.026;5.468;2023-09-08T13:19:40;100851.34;;;38.44
53667;BMP280;39568;51.026;5.468;2023-09-08T13:22:07;100836.69;;;39.22
53667;BMP280;39568;51.026;5.468;2023-09-08T13:24:35;100834.00;;;38.68
53667;BMP280;39568;51.026;5.468;2023-09-08T13:27:03;100841.59;;;38.17
53667;BMP280;39568;51.026;5.468;2023-09-08T13:29:30;100841.59;;;38.07
53667;BMP280;39568;51.026;5.468;2023-09-08T13:31:56;100840.97;;;38.71
53667;BMP280;39568;51.026;5.468;2023-09-08T13:34:24;100845.09;;;39.06
53667;BMP280;39568;51.026;5.468;2023-09-08T13:36:51;100842.63;;;37.30
53667;BMP280;39568;51.026;5.468;2023-09-08T13:39:17;100833.97;;;38.42
53667;BMP280;39568;51.026;5.468;2023-09-08T13:41:48;100826.94;;;39.25
53667;BMP280;39568;51.026;5.468;2023-09-08T13:44:17;100828.25;;;37.64
53667;BMP280;39568;51.026;5.468;2023-09-08T13:46:45;100824.28;;;38.79
53667;BMP280;39568;51.026;5.468;2023-09-08T13:49:11;100822.09;;;39.08
53667;BMP280;39568;51.026;5.468;2023-09-08T13:51:38;100816.53;;;37.93
53667;BMP280;39568;51.026;5.468;2023-09-08T13:54:05;100824.78;;;37.71
53667;BMP280;39568;51.026;5.468;2023-09-08T13:56:32;100830.47;;;36.76
53667;BMP280;39568;51.026;5.468;2023-09-08T13:58:59;100820.66;;;36.61